Time;durP1;ratioP1;P1;durP2;ratioP2;P2;SDS_P1;SDS_P2;PMS_P1;PMS_P2;Temp;Humidity;BMP_temperature;BMP_pressure;BME280_temperature;BME280_humidity;BME280_pressure;Samples;Min_cycle;Max_cycle;Signal;HPM_P1;HPM_P2
2023/01/31 00:01:43;;;;;;;11.35;1.45;;;;;;;2.96;100.00;101282.28;6095557;28;20083;-73
2023/01/31 00:04:38;;;;;;;10.43;1.17;;;;;;;2.95;100.00;101259.63;6096121;28;20037;-72
2023/01/31 00:07:33;;;;;;;11.83;1.70;;;;;;;2.92;100.00;101241.44;6097240;28;20044;-72
2023/01/31 00:10:29;;;;;;;12.67;1.50;;;;;;;3.05;100.00;101280.91;6064514;28;20361;-73
2023/01/31 00:13:24;;;;;;;9.17;1.70;;;;;;;2.92;99.93;101273.72;6074967;28;20037;-72
2023/01/31 00:16:20;;;;;;;7.10;1.60;;;;;;;2.67;99.85;101252.41;6083697;28;20044;-72
2023/01/31 00:19:16;;;;;;;10.35;1.60;;;;;;;2.90;99.99;101286.06;6085895;28;20033;-72
2023/01/31 00:22:11;;;;;;;12.60;1.77;;;;;;;2.88;100.00;101281.84;6076651;28;20064;-71
2023/01/31 00:25:07;;;;;;;8.03;2.10;;;;;;;2.81;100.00;101301.41;6077753;28;20037;-72
2023/01/31 00:28:02;;;;;;;9.73;1.77;;;;;;;2.77;100.00;101295.50;6077476;28;20421;-72
2023/01/31 00:30:57;;;;;;;13.73;2.13;;;;;;;2.76;100.00;101296.44;6077562;28;20505;-72
2023/01/31 00:33:53;;;;;;;12.60;2.17;;;;;;;2.68;100.00;101290.78;6088542;28;20442;-71
2023/01/31 00:36:49;;;;;;;13.15;1.92;;;;;;;2.61;100.00;101304.28;6101609;28;20120;-72
2023/01/31 00:39:44;;;;;;;11.93;1.97;;;;;;;2.62;100.00;101309.41;6079363;28;20362;-72
2023/01/31 00:42:39;;;;;;;11.33;2.20;;;;;;;2.67;100.00;101291.69;6094692;28;20029;-72
2023/01/31 00:45:35;;;;;;;13.50;2.10;;;;;;;2.65;100.00;101284.84;6101209;28;20347;-71
2023/01/31 00:48:30;;;;;;;9.13;2.13;;;;;;;2.75;100.00;101306.97;6088962;28;20052;-72
2023/01/31 00:51:25;;;;;;;11.13;1.70;;;;;;;2.75;100.00;101310.44;6086979;28;20029;-70
2023/01/31 00:54:21;;;;;;;14.70;2.37;;;;;;;2.85;100.00;101318.69;6090359;28;20044;-70
2023/01/31 00:57:16;;;;;;;24.30;2.20;;;;;;;2.85;100.00;101318.69;6084403;28;20040;-73
2023/01/31 01:00:12;;;;;;;6.23;1.77;;;;;;;2.95;100.00;101327.72;6099225;28;20407;-72
2023/01/31 01:03:07;;;;;;;15.95;2.58;;;;;;;2.91;100.00;101320.94;6100139;28;20380;-71
2023/01/31 01:06:03;;;;;;;14.20;2.23;;;;;;;2.93;100.00;101325.19;6091548;28;20048;-70
2023/01/31 01:08:58;;;;;;;11.35;1.70;;;;;;;3.07;100.00;101347.19;6094454;28;20117;-70
2023/01/31 01:11:54;;;;;;;14.65;2.25;;;;;;;3.08;100.00;101341.84;6075841;28;20026;-72
2023/01/31 01:14:49;;;;;;;13.40;2.07;;;;;;;3.16;100.00;101342.28;6076787;28;20040;-70
2023/01/31 01:17:44;;;;;;;18.73;1.97;;;;;;;3.19;99.35;101349.97;6080391;28;20029;-71
2023/01/31 01:20:40;;;;;;;11.93;1.70;;;;;;;3.23;99.21;101359.38;6082384;28;20036;-71
2023/01/31 01:23:36;;;;;;;16.02;2.22;;;;;;;3.23;99.69;101351.50;6097373;28;20040;-70
2023/01/31 01:26:32;;;;;;;12.20;1.70;;;;;;;3.20;98.91;101343.81;6086414;28;20434;-71
2023/01/31 01:29:28;;;;;;;7.47;1.40;;;;;;;3.23;98.55;101351.50;6091554;28;20037;-71
2023/01/31 01:32:23;;;;;;;9.30;1.53;;;;;;;3.18;99.16;101353.50;6075712;28;20037;-71
2023/01/31 01:35:18;;;;;;;9.17;1.37;;;;;;;3.14;99.26;101357.25;6076485;28;20523;-71
2023/01/31 01:38:13;;;;;;;15.20;1.80;;;;;;;3.07;99.66;101353.28;6076230;28;20045;-72
2023/01/31 01:41:10;;;;;;;9.97;1.57;;;;;;;3.10;99.74;101339.97;6083568;28;20029;-71
2023/01/31 01:44:42;;;;;;;9.43;2.10;;;;;;;3.24;100.00;101358.41;6099431;28;20044;-72
2023/01/31 01:47:50;;;;;;;5.57;1.55;;;;;;;3.21;100.00;101360.34;6083279;28;20444;-72
2023/01/31 01:50:47;;;;;;;9.73;1.92;;;;;;;3.08;100.00;101351.47;6078052;28;20037;-72
2023/01/31 01:53:43;;;;;;;7.45;1.45;;;;;;;3.00;100.00;101355.34;6075030;28;20061;-71
2023/01/31 01:56:42;;;;;;;17.10;2.38;;;;;;;2.90;100.00;101338.47;6077187;28;20090;-71
2023/01/31 01:59:44;;;;;;;13.88;2.38;;;;;;;3.14;100.00;101375.56;6099697;28;20028;-72
2023/01/31 02:02:41;;;;;;;7.10;1.90;;;;;;;3.18;100.00;101371.84;6090865;28;20040;-71
2023/01/31 02:05:41;;;;;;;9.10;1.45;;;;;;;3.22;100.00;101381.25;6098957;28;20384;-71
2023/01/31 02:08:38;;;;;;;11.05;1.35;;;;;;;3.23;100.00;101377.72;6078725;28;20041;-71
2023/01/31 02:11:33;;;;;;;7.93;1.35;;;;;;;3.20;100.00;101383.13;6078918;28;20538;-72
2023/01/31 02:14:29;;;;;;;14.47;1.70;;;;;;;3.36;100.00;101401.47;6059085;28;20033;-71
2023/01/31 02:17:25;;;;;;;10.82;1.52;;;;;;;3.36;100.00;101393.59;6087701;28;20622;-71
2023/01/31 02:20:50;;;;;;;15.02;2.08;;;;;;;3.17;100.00;101367.56;6075210;28;20035;-73
2023/01/31 02:24:13;;;;;;;12.80;2.42;;;;;;;3.29;100.00;101390.47;6074639;28;20029;-73
2023/01/31 02:27:25;;;;;;;8.85;1.48;;;;;;;3.13;100.00;101381.72;6083099;28;20090;-72
2023/01/31 02:30:33;;;;;;;14.23;1.75;;;;;;;3.06;100.00;101390.00;6075042;28;20116;-72
2023/01/31 02:34:06;;;;;;;10.43;1.45;;;;;;;2.90;100.00;101384.75;6072996;28;20053;-72
2023/01/31 02:37:28;;;;;;;16.15;1.58;;;;;;;2.79;100.00;101381.84;6073456;28;20120;-70
2023/01/31 02:40:27;;;;;;;21.75;3.80;;;;;;;2.69;100.00;101385.88;6057328;28;20068;-71
2023/01/31 02:43:26;;;;;;;14.75;2.50;;;;;;;2.58;100.00;101372.50;6073917;28;20069;-72
2023/01/31 02:46:22;;;;;;;14.57;2.38;;;;;;;2.48;100.00;101369.47;6075002;28;20040;-70
2023/01/31 02:49:35;;;;;;;21.77;2.25;;;;;;;2.51;100.00;101376.31;6092843;28;20128;-71
2023/01/31 02:52:36;;;;;;;12.75;1.88;;;;;;;2.48;100.00;101397.41;6082801;28;20523;-72
2023/01/31 02:59:06;;;;;;;10.90;1.65;;;;;;;2.57;100.00;101402.19;6086518;28;20408;-71
2023/01/31 03:02:02;;;;;;;6.20;2.00;;;;;;;2.72;100.00;101409.25;6097579;28;20054;-71
2023/01/31 03:04:57;;;;;;;8.50;1.63;;;;;;;2.82;100.00;101402.63;6080212;28;20037;-70
2023/01/31 03:07:54;;;;;;;9.10;1.80;;;;;;;2.97;100.00;101407.06;6084076;28;20540;-70
2023/01/31 03:10:57;;;;;;;6.18;1.20;;;;;;;3.05;100.00;101412.75;6073639;28;20125;-72
2023/01/31 03:14:04;;;;;;;11.75;1.88;;;;;;;3.05;100.00;101404.03;6056034;28;20076;-72
2023/01/31 03:20:35;;;;;;;11.52;1.60;;;;;;;3.15;100.00;101413.97;6074237;28;20116;-71
2023/01/31 03:23:30;;;;;;;14.50;2.65;;;;;;;3.06;100.00;101398.72;6092706;28;20045;-70
2023/01/31 03:26:26;;;;;;;11.75;2.30;;;;;;;2.97;100.00;101405.28;6096094;28;20060;-72
2023/01/31 03:29:22;;;;;;;13.15;2.65;;;;;;;2.91;100.00;101402.97;6072463;28;20041;-71
2023/01/31 03:32:24;;;;;;;13.07;2.55;;;;;;;2.87;100.00;101403.22;6071933;28;20056;-70
2023/01/31 03:35:22;;;;;;;9.98;2.35;;;;;;;2.84;100.00;101411.25;6068665;28;20082;-71
2023/01/31 03:38:25;;;;;;;11.07;1.55;;;;;;;2.81;100.00;101403.53;6096777;28;20033;-70
2023/01/31 03:41:27;;;;;;;8.82;1.67;;;;;;;2.72;100.00;101401.41;6096571;28;20136;-70
2023/01/31 03:44:45;;;;;;;11.02;2.28;;;;;;;2.63;100.00;101397.50;6077092;28;20646;-70
2023/01/31 03:47:42;;;;;;;12.02;3.35;;;;;;;2.55;100.00;101383.97;6055545;28;20040;-69
2023/01/31 03:50:43;;;;;;;12.85;2.17;;;;;;;2.51;100.00;101392.88;6072957;28;20488;-69
2023/01/31 03:53:39;;;;;;;;;;;;;;;2.52;100.00;101401.59;6055484;28;20065;-69
2023/01/31 03:56:55;;;;;;;15.05;2.28;;;;;;;2.45;100.00;101400.22;6095828;28;20545;-69
2023/01/31 03:59:53;;;;;;;18.00;2.58;;;;;;;2.41;100.00;101399.50;6079485;28;20037;-70
2023/01/31 04:02:51;;;;;;;6.45;1.85;;;;;;;2.46;100.00;101399.28;6062480;28;20071;-70
2023/01/31 04:05:47;;;;;;;8.52;1.75;;;;;;;2.44;100.00;101390.66;6096545;28;20045;-69
2023/01/31 04:08:43;;;;;;;10.40;1.92;;;;;;;2.49;100.00;101393.88;6077209;28;20030;-70
2023/01/31 04:11:40;;;;;;;16.53;2.53;;;;;;;2.47;100.00;101395.75;6072915;28;20400;-70
2023/01/31 04:14:35;;;;;;;20.92;2.50;;;;;;;2.46;100.00;101396.66;6072792;28;20260;-69
2023/01/31 04:17:32;;;;;;;13.63;2.43;;;;;;;2.41;100.00;101365.50;6084423;28;20066;-71
2023/01/31 04:20:27;;;;;;;14.18;1.90;;;;;;;2.42;100.00;101378.50;6073274;28;20048;-71
2023/01/31 04:23:23;;;;;;;13.77;1.40;;;;;;;2.57;100.00;101381.25;6094832;28;20045;-69
2023/01/31 04:26:19;;;;;;;14.88;1.42;;;;;;;2.66;100.00;101376.41;6073205;28;20044;-70
2023/01/31 04:29:14;;;;;;;9.33;1.63;;;;;;;2.57;100.00;101352.47;6073746;28;20046;-72
2023/01/31 04:32:09;;;;;;;14.77;2.27;;;;;;;2.63;100.00;101365.25;6089888;28;20459;-71
2023/01/31 04:35:05;;;;;;;12.48;1.50;;;;;;;2.64;100.00;101366.91;6073887;28;20275;-70
2023/01/31 04:38:00;;;;;;;11.05;2.42;;;;;;;2.66;100.00;101388.66;6094866;28;20615;-69
2023/01/31 04:40:56;;;;;;;8.43;1.52;;;;;;;2.61;100.00;101388.03;6073087;28;20025;-69
2023/01/31 04:43:51;;;;;;;10.47;1.70;;;;;;;2.58;100.00;101381.19;6071093;28;20033;-71
2023/01/31 04:46:46;;;;;;;9.15;1.77;;;;;;;2.59;100.00;101389.88;6072370;28;20041;-70
2023/01/31 04:49:43;;;;;;;6.88;1.80;;;;;;;2.51;100.00;101386.78;6072685;28;20489;-70
2023/01/31 04:52:38;;;;;;;10.52;1.33;;;;;;;2.45;100.00;101381.91;6072062;28;20108;-69
2023/01/31 04:55:34;;;;;;;7.53;1.33;;;;;;;2.49;100.00;101399.13;6072999;28;20052;-70
2023/01/31 04:58:29;;;;;;;15.20;1.70;;;;;;;2.42;100.00;101392.53;6072547;28;20326;-71
2023/01/31 05:01:25;;;;;;;14.67;2.00;;;;;;;2.42;100.00;101413.44;6076163;28;20049;-70
2023/01/31 05:04:21;;;;;;;10.95;1.55;;;;;;;2.31;100.00;101406.97;6075273;28;20676;-71
2023/01/31 05:07:16;;;;;;;12.90;2.28;;;;;;;2.27;100.00;101400.22;6076954;28;20041;-70
2023/01/31 05:10:12;;;;;;;6.77;1.40;;;;;;;2.34;100.00;101387.66;6077134;28;20036;-69
2023/01/31 05:13:08;;;;;;;5.25;1.27;;;;;;;2.33;100.00;101402.53;6084852;28;20488;-72
2023/01/31 05:16:07;;;;;;;8.98;1.75;;;;;;;2.26;100.00;101376.72;6079048;28;20033;-71
2023/01/31 05:19:02;;;;;;;14.55;1.60;;;;;;;2.50;100.00;101406.88;6086544;28;20484;-72
2023/01/31 05:21:58;;;;;;;8.17;1.43;;;;;;;2.39;100.00;101393.53;6075967;28;20041;-71
2023/01/31 05:24:53;;;;;;;14.93;1.90;;;;;;;2.39;100.00;101394.34;6076085;28;20041;-71
2023/01/31 05:27:50;;;;;;;8.10;1.53;;;;;;;2.40;100.00;101390.81;6076147;28;20785;-71
2023/01/31 05:30:45;;;;;;;8.63;1.38;;;;;;;2.33;100.00;101389.44;6076593;28;20108;-70
2023/01/31 05:33:41;;;;;;;7.33;1.73;;;;;;;2.34;100.00;101391.13;6075744;28;20045;-70
2023/01/31 05:36:37;;;;;;;7.93;1.42;;;;;;;2.40;100.00;101388.19;6076085;28;20031;-72
2023/01/31 05:39:32;;;;;;;16.93;2.07;;;;;;;2.48;100.00;101395.66;6076375;28;20395;-70
2023/01/31 05:42:27;;;;;;;9.85;1.70;;;;;;;2.42;100.00;101389.91;6075073;28;20033;-73
2023/01/31 05:45:23;;;;;;;9.63;1.63;;;;;;;2.52;100.00;101398.97;6093394;28;20067;-70
2023/01/31 05:48:18;;;;;;;6.73;1.70;;;;;;;2.43;100.00;101384.56;6100007;28;20079;-69
2023/01/31 05:51:13;;;;;;;15.23;2.33;;;;;;;2.58;100.00;101409.13;6099919;28;20376;-71
2023/01/31 05:54:10;;;;;;;11.73;2.20;;;;;;;2.59;100.00;101405.56;6095357;28;20438;-72
2023/01/31 05:57:06;;;;;;;9.77;1.30;;;;;;;2.63;100.00;101391.41;6083044;28;20029;-72
2023/01/31 06:00:02;;;;;;;13.50;2.17;;;;;;;2.60;100.00;101386.34;6082335;28;20491;-72
2023/01/31 06:02:57;;;;;;;7.80;1.48;;;;;;;2.67;100.00;101399.03;6098786;28;20021;-72
2023/01/31 06:05:53;;;;;;;18.95;2.25;;;;;;;2.64;100.00;101390.47;6099516;28;20109;-72
2023/01/31 06:08:49;;;;;;;9.60;2.10;;;;;;;2.64;100.00;101393.94;6089394;28;20061;-72
2023/01/31 06:11:44;;;;;;;10.67;1.73;;;;;;;2.73;100.00;101403.09;6074979;28;20384;-71
2023/01/31 06:14:39;;;;;;;16.73;2.03;;;;;;;2.68;100.00;101399.88;6075070;28;20037;-72
2023/01/31 06:17:35;;;;;;;8.43;1.88;;;;;;;2.68;100.00;101392.03;6087110;28;20085;-72
2023/01/31 06:20:30;;;;;;;7.17;1.67;;;;;;;2.71;100.00;101395.34;6075183;28;20033;-72
2023/01/31 06:23:26;;;;;;;8.43;2.40;;;;;;;2.75;100.00;101391.63;6074384;28;20044;-73
2023/01/31 06:26:21;;;;;;;15.10;1.95;;;;;;;2.77;100.00;101394.19;6074823;28;20053;-72
2023/01/31 06:29:17;;;;;;;10.98;2.15;;;;;;;2.67;100.00;101380.69;6086357;28;20385;-72
2023/01/31 06:32:12;;;;;;;9.53;1.77;;;;;;;2.72;100.00;101377.84;6074420;28;20034;-72
2023/01/31 06:35:07;;;;;;;11.33;2.10;;;;;;;2.81;100.00;101385.22;6094496;28;20048;-72
2023/01/31 06:38:03;;;;;;;9.40;1.55;;;;;;;2.84;100.00;101390.28;6099009;28;20476;-71
2023/01/31 06:40:59;;;;;;;13.63;2.33;;;;;;;2.79;100.00;101373.97;6087147;28;20112;-72
2023/01/31 06:43:55;;;;;;;5.25;1.45;;;;;;;2.85;100.00;101377.09;6074151;28;20039;-72
2023/01/31 06:46:50;;;;;;;15.32;2.53;;;;;;;2.79;100.00;101366.13;6082412;28;20034;-72
2023/01/31 06:49:45;;;;;;;10.10;2.17;;;;;;;2.72;100.00;101343.78;6074489;28;20038;-72
2023/01/31 06:52:41;;;;;;;8.10;1.83;;;;;;;2.72;100.00;101339.41;6074563;28;20026;-70
2023/01/31 06:55:37;;;;;;;15.27;2.00;;;;;;;2.81;100.00;101356.41;6079405;28;20068;-71
2023/01/31 06:58:32;;;;;;;12.88;2.13;;;;;;;2.73;100.00;101327.16;6072205;28;20572;-71
2023/01/31 07:01:27;;;;;;;14.10;2.27;;;;;;;2.84;100.00;101348.41;6074728;28;20040;-70
2023/01/31 07:04:23;;;;;;;11.60;2.00;;;;;;;2.78;100.00;101333.00;6073443;28;20045;-72
2023/01/31 07:07:18;;;;;;;14.05;1.83;;;;;;;2.90;100.00;101342.84;6085443;28;20032;-71
2023/01/31 07:10:13;;;;;;;18.83;2.97;;;;;;;2.89;100.00;101331.50;6074719;28;20484;-70
2023/01/31 07:13:09;;;;;;;9.20;2.93;;;;;;;2.84;100.00;101315.22;6076265;28;20041;-71
2023/01/31 07:16:04;;;;;;;13.35;2.63;;;;;;;2.86;100.00;101315.09;6084746;28;20062;-71
2023/01/31 07:18:59;;;;;;;18.60;2.80;;;;;;;2.93;100.00;101322.56;6083835;28;20483;-71
2023/01/31 07:21:55;;;;;;;16.23;2.70;;;;;;;2.94;100.00;101313.78;6072594;28;20294;-71
2023/01/31 07:24:50;;;;;;;15.23;2.53;;;;;;;2.90;100.00;101296.56;6073788;28;20351;-70
2023/01/31 07:27:45;;;;;;;12.93;2.93;;;;;;;3.03;100.00;101301.97;6074057;28;20037;-70
2023/01/31 07:30:42;;;;;;;11.70;2.77;;;;;;;3.08;100.00;101289.44;6073776;28;20447;-71
2023/01/31 07:33:38;;;;;;;15.30;2.78;;;;;;;3.16;100.00;101292.50;6072873;28;20109;-70
2023/01/31 07:36:33;;;;;;;12.07;2.97;;;;;;;3.07;100.00;101264.19;6077861;28;20021;-71
2023/01/31 07:39:29;;;;;;;15.93;3.23;;;;;;;3.16;100.00;101276.78;6085722;28;20493;-69
2023/01/31 07:42:24;;;;;;;15.37;2.70;;;;;;;3.17;100.00;101262.75;6095410;28;20422;-71
2023/01/31 07:45:19;;;;;;;14.07;2.53;;;;;;;3.27;100.00;101263.91;6076448;28;20048;-72
2023/01/31 07:48:15;;;;;;;15.47;3.23;;;;;;;3.33;100.00;101263.56;6073269;28;20120;-70
2023/01/31 07:51:10;;;;;;;11.18;2.70;;;;;;;3.31;100.00;101241.00;6085041;28;20037;-70
2023/01/31 07:54:06;;;;;;;13.90;3.03;;;;;;;3.34;100.00;101233.78;6096679;28;20033;-70
2023/01/31 07:57:01;;;;;;;14.20;2.97;;;;;;;3.37;100.00;101228.38;6097271;28;20116;-70
2023/01/31 07:59:58;;;;;;;15.43;3.47;;;;;;;3.47;100.00;101239.19;6078359;28;20408;-71
2023/01/31 08:06:09;;;;;;;15.48;3.20;;;;;;;3.49;100.00;101225.06;6073381;28;20038;-70
2023/01/31 08:09:04;;;;;;;16.50;3.78;;;;;;;3.61;100.00;101237.44;6092714;28;20420;-70
2023/01/31 08:11:59;;;;;;;10.48;3.92;;;;;;;3.61;100.00;101224.34;6072571;28;20057;-71
2023/01/31 08:14:55;;;;;;;15.43;4.40;;;;;;;3.78;100.00;101244.34;6074121;28;20386;-70
2023/01/31 08:17:50;;;;;;;14.37;3.73;;;;;;;3.78;100.00;101220.75;6072705;28;20034;-71
2023/01/31 08:20:45;;;;;;;15.90;4.17;;;;;;;3.77;100.00;101205.97;6073026;28;20029;-71
2023/01/31 08:23:41;;;;;;;16.53;4.73;;;;;;;3.81;99.80;101217.09;6072328;28;20041;-71
2023/01/31 08:26:37;;;;;;;20.10;4.95;;;;;;;3.91;100.00;101219.09;6061526;28;20386;-72
2023/01/31 08:29:32;;;;;;;15.27;5.47;;;;;;;3.91;99.38;101202.50;6072960;28;20038;-72
2023/01/31 08:32:27;;;;;;;14.43;4.90;;;;;;;4.01;99.20;101216.75;6072126;28;20040;-72
2023/01/31 08:35:25;;;;;;;11.30;4.30;;;;;;;4.03;98.89;101220.13;6057543;28;20056;-71
2023/01/31 08:38:20;;;;;;;18.88;4.80;;;;;;;4.12;98.34;101206.47;6077604;28;20472;-71
2023/01/31 08:41:17;;;;;;;15.82;5.13;;;;;;;4.09;99.01;101196.16;6077481;28;20025;-71
2023/01/31 08:44:13;;;;;;;10.57;4.78;;;;;;;4.13;98.65;101195.03;6076683;28;20041;-70
2023/01/31 08:47:08;;;;;;;16.37;5.37;;;;;;;4.30;98.51;101199.22;6075332;28;20034;-71
2023/01/31 08:50:04;;;;;;;20.20;5.43;;;;;;;4.45;97.10;101203.56;6077494;28;20770;-71
2023/01/31 08:53:01;;;;;;;12.65;4.45;;;;;;;4.60;96.34;101205.22;6076573;28;20036;-72
2023/01/31 08:55:58;;;;;;;16.25;5.40;;;;;;;4.64;95.43;101194.44;6079723;28;20098;-70
2023/01/31 08:58:53;;;;;;;13.57;4.65;;;;;;;4.54;95.38;101161.81;6083581;28;20493;-72
2023/01/31 09:01:49;;;;;;;14.35;3.67;;;;;;;4.44;95.47;101142.31;6076529;28;20076;-72
2023/01/31 09:04:44;;;;;;;15.83;4.53;;;;;;;4.55;95.96;101158.25;6076646;28;20041;-72
2023/01/31 09:07:39;;;;;;;14.57;4.57;;;;;;;4.60;96.14;101150.91;6076844;28;20057;-71
2023/01/31 09:10:35;;;;;;;18.03;4.00;;;;;;;4.58;95.20;101146.69;6088207;28;20070;-70
2023/01/31 09:13:32;;;;;;;18.65;5.85;;;;;;;4.62;95.24;101159.53;6076661;28;20033;-72
2023/01/31 09:16:28;;;;;;;16.42;5.00;;;;;;;4.71;95.21;101174.72;6080880;28;20037;-72
2023/01/31 09:19:23;;;;;;;16.53;5.60;;;;;;;4.70;94.79;101157.25;6062149;28;20400;-70
2023/01/31 09:22:19;;;;;;;16.40;5.13;;;;;;;4.78;93.88;101156.78;6076467;28;20021;-73
2023/01/31 09:25:14;;;;;;;18.83;4.63;;;;;;;4.77;93.93;101148.06;6100768;28;20108;-70
2023/01/31 09:28:10;;;;;;;19.93;6.00;;;;;;;4.81;93.56;101152.16;6088692;28;20499;-71
2023/01/31 09:31:07;;;;;;;24.23;5.23;;;;;;;4.69;94.05;101120.59;6076287;28;20022;-70
2023/01/31 09:34:03;;;;;;;25.27;5.30;;;;;;;4.73;93.34;101136.06;6075241;28;20045;-70
2023/01/31 09:36:58;;;;;;;14.77;5.10;;;;;;;4.78;93.83;101139.22;6091499;28;20391;-71
2023/01/31 09:39:53;;;;;;;13.87;4.10;;;;;;;4.68;93.63;101127.63;6100452;28;20037;-70
2023/01/31 09:42:49;;;;;;;22.23;4.97;;;;;;;4.74;94.05;101143.00;6091495;28;20060;-71
2023/01/31 09:45:45;;;;;;;21.38;5.90;;;;;;;4.69;94.81;101129.31;6099702;28;20461;-71
2023/01/31 09:48:43;;;;;;;22.27;5.10;;;;;;;4.70;95.47;101133.63;6099930;28;20092;-71
2023/01/31 09:51:38;;;;;;;17.73;4.72;;;;;;;4.69;95.37;101120.59;6098745;28;20036;-71
2023/01/31 09:54:35;;;;;;;18.17;5.28;;;;;;;4.66;96.20;101119.00;6082817;28;20033;-70
2023/01/31 09:57:50;;;;;;;17.45;5.47;;;;;;;4.48;98.04;101109.69;6057773;28;20092;-72
2023/01/31 10:00:49;;;;;;;12.10;5.55;;;;;;;4.38;99.61;101113.81;6075473;28;20041;-71
2023/01/31 10:03:54;;;;;;;24.23;6.10;;;;;;;4.23;100.00;101138.41;6074963;28;20511;-70
2023/01/31 10:06:52;;;;;;;16.17;5.97;;;;;;;4.13;100.00;101095.31;6075212;28;20038;-70
2023/01/31 10:10:03;;;;;;;21.90;6.32;;;;;;;4.05;100.00;101111.53;6074935;28;20022;-72
2023/01/31 10:13:03;;;;;;;15.73;6.95;;;;;;;3.97;100.00;101110.31;6092778;28;20493;-72
2023/01/31 10:16:08;;;;;;;21.85;6.85;;;;;;;3.91;100.00;101097.59;6060098;28;20042;-71
2023/01/31 10:19:11;;;;;;;19.13;6.50;;;;;;;3.88;100.00;101105.63;6060181;28;20038;-71
2023/01/31 10:22:09;;;;;;;21.77;7.43;;;;;;;3.82;100.00;101090.28;6098545;28;20033;-70
2023/01/31 10:25:16;;;;;;;21.13;7.40;;;;;;;3.78;100.00;101086.97;6090594;28;20112;-69
2023/01/31 10:28:16;;;;;;;17.15;7.10;;;;;;;3.74;100.00;101077.63;6096880;28;20041;-70
2023/01/31 10:31:31;;;;;;;19.85;6.25;;;;;;;3.72;100.00;101076.03;6089829;28;20033;-70
2023/01/31 10:34:40;;;;;;;16.92;6.85;;;;;;;3.68;100.00;101064.03;6077691;28;20133;-71
2023/01/31 10:37:42;;;;;;;17.38;6.32;;;;;;;3.82;100.00;101066.66;6070105;28;20029;-70
2023/01/31 10:40:39;;;;;;;18.10;6.88;;;;;;;3.79;100.00;101072.94;6074552;28;20049;-71
2023/01/31 10:43:40;;;;;;;19.83;7.03;;;;;;;3.75;100.00;101060.13;6054192;28;20065;-72
2023/01/31 10:46:35;;;;;;;14.73;5.60;;;;;;;3.78;100.00;101038.97;6057009;28;20036;-71
2023/01/31 10:49:31;;;;;;;19.40;6.77;;;;;;;3.75;100.00;101039.16;6070487;28;20029;-70
2023/01/31 10:53:08;;;;;;;19.23;5.77;;;;;;;3.82;100.00;101035.19;6085932;28;20029;-71
2023/01/31 10:56:11;;;;;;;13.68;5.30;;;;;;;3.88;100.00;101024.31;6046622;28;20048;-70
2023/01/31 10:59:13;;;;;;;15.50;6.20;;;;;;;3.86;100.00;101007.84;6072232;28;20060;-71
2023/01/31 11:02:19;;;;;;;16.15;6.13;;;;;;;3.90;100.00;101019.81;6073904;28;20041;-71
2023/01/31 11:05:20;;;;;;;17.55;4.68;;;;;;;3.73;100.00;100986.78;6074174;28;20037;-71
2023/01/31 11:08:41;;;;;;;9.40;4.65;;;;;;;3.94;100.00;100992.47;6072624;28;20049;-70
2023/01/31 11:11:55;;;;;;;12.98;4.80;;;;;;;3.96;100.00;100959.09;6070261;28;20055;-71
2023/01/31 11:15:05;;;;;;;12.90;5.15;;;;;;;4.03;100.00;100976.13;6073533;28;20037;-72
2023/01/31 11:18:01;;;;;;;10.98;3.83;;;;;;;4.10;100.00;100972.19;6074197;28;20033;-71
2023/01/31 11:20:58;;;;;;;9.63;4.40;;;;;;;4.07;100.00;100946.16;6076215;28;20056;-70
2023/01/31 11:24:02;;;;;;;14.15;4.55;;;;;;;4.21;100.00;100953.97;6096105;28;20472;-71
2023/01/31 11:27:01;;;;;;;11.00;4.43;;;;;;;4.22;100.00;100951.22;6093477;28;20074;-72
2023/01/31 11:29:58;;;;;;;12.43;4.22;;;;;;;4.31;100.00;100952.41;6070639;28;20034;-72
2023/01/31 11:32:53;;;;;;;9.68;4.43;;;;;;;4.33;100.00;100947.91;6072569;28;20048;-70
2023/01/31 11:35:51;;;;;;;12.98;4.63;;;;;;;4.29;100.00;100925.44;6056179;28;20445;-72
2023/01/31 11:38:46;;;;;;;10.38;4.53;;;;;;;4.38;100.00;100943.19;6087938;28;20057;-72
2023/01/31 11:41:41;;;;;;;13.60;4.43;;;;;;;4.39;100.00;100946.66;6097402;28;20043;-71
2023/01/31 11:44:53;;;;;;;10.77;3.92;;;;;;;4.26;100.00;100930.88;6097378;28;20040;-72
2023/01/31 11:47:51;;;;;;;14.02;5.13;;;;;;;4.24;100.00;100917.00;6072511;28;20162;-70
2023/01/31 11:50:53;;;;;;;9.30;4.55;;;;;;;4.38;100.00;100942.34;6078093;28;20029;-71
2023/01/31 11:53:49;;;;;;;12.02;4.68;;;;;;;4.38;100.00;100929.22;6055037;28;20476;-72
2023/01/31 11:56:45;;;;;;;17.38;5.60;;;;;;;4.33;100.00;100921.66;6081545;28;20047;-71
2023/01/31 11:59:41;;;;;;;13.38;4.95;;;;;;;4.38;100.00;100914.31;6083216;28;20040;-71
2023/01/31 12:02:40;;;;;;;12.48;6.00;;;;;;;4.41;100.00;100903.59;6076611;28;20422;-71
2023/01/31 12:05:40;;;;;;;14.00;5.55;;;;;;;4.41;100.00;100897.50;6073170;28;20033;-71
2023/01/31 12:08:40;;;;;;;11.45;6.20;;;;;;;4.30;100.00;100874.59;6056177;28;20080;-70
2023/01/31 12:11:35;;;;;;;18.27;5.07;;;;;;;4.39;100.00;100895.00;6079112;28;20112;-71
2023/01/31 12:14:39;;;;;;;15.17;5.57;;;;;;;4.40;100.00;100888.81;6086175;28;20135;-70
2023/01/31 12:17:43;;;;;;;13.43;5.95;;;;;;;4.35;100.00;100888.25;6090008;28;20029;-71
2023/01/31 12:20:45;;;;;;;11.30;5.32;;;;;;;4.35;100.00;100887.44;6066217;28;20036;-69
2023/01/31 12:24:02;;;;;;;12.93;5.00;;;;;;;4.38;100.00;100888.06;6074372;28;20090;-69
2023/01/31 12:27:19;;;;;;;16.00;6.20;;;;;;;4.43;100.00;100879.91;6053616;28;20080;-71
2023/01/31 12:30:28;;;;;;;11.15;5.85;;;;;;;4.44;100.00;100844.81;6080972;28;20112;-71
2023/01/31 12:33:45;;;;;;;14.85;5.43;;;;;;;4.57;100.00;100869.28;6068298;28;20033;-71
2023/01/31 12:37:06;;;;;;;14.02;6.05;;;;;;;4.66;100.00;100855.53;6092984;28;20045;-71
2023/01/31 12:40:07;;;;;;;10.18;5.88;;;;;;;4.64;100.00;100858.28;6060057;28;20076;-72
2023/01/31 12:43:12;;;;;;;12.27;5.82;;;;;;;4.66;100.00;100861.63;6085833;28;20043;-71
2023/01/31 12:46:18;;;;;;;21.67;6.68;;;;;;;4.69;100.00;100860.56;6070741;28;20175;-72
2023/01/31 12:49:40;;;;;;;22.92;7.75;;;;;;;4.73;100.00;100862.88;6076221;28;20484;-71
2023/01/31 12:52:46;;;;;;;15.57;6.38;;;;;;;4.68;100.00;100854.47;6099070;28;20495;-70
2023/01/31 12:56:03;;;;;;;14.02;6.03;;;;;;;4.67;100.00;100852.78;6089066;28;20033;-73
2023/01/31 12:59:20;;;;;;;18.73;7.95;;;;;;;4.59;100.00;100849.03;6101396;28;20029;-72
2023/01/31 13:02:32;;;;;;;15.98;6.63;;;;;;;4.66;100.00;100877.38;6085482;28;20029;-71
2023/01/31 13:05:33;;;;;;;18.30;7.05;;;;;;;4.67;100.00;100858.03;6092604;28;20064;-72
2023/01/31 13:08:31;;;;;;;19.48;6.85;;;;;;;4.66;100.00;100860.78;6099575;28;20087;-69
2023/01/31 13:11:32;;;;;;;21.77;7.60;;;;;;;4.49;100.00;100854.06;6073939;28;20025;-71
2023/01/31 13:14:31;;;;;;;21.85;8.40;;;;;;;4.60;100.00;100872.56;6074164;28;20044;-71
2023/01/31 13:17:27;;;;;;;23.27;8.68;;;;;;;4.46;100.00;100853.41;6070944;28;20464;-71
2023/01/31 13:20:40;;;;;;;18.75;8.15;;;;;;;4.53;100.00;100883.56;6075243;28;20029;-69
2023/01/31 13:23:39;;;;;;;22.23;9.07;;;;;;;4.52;100.00;100872.22;6090279;28;20511;-69
2023/01/31 13:26:39;;;;;;;22.45;8.73;;;;;;;4.47;100.00;100871.69;6075534;28;20033;-72
2023/01/31 13:29:41;;;;;;;21.88;8.68;;;;;;;4.36;100.00;100845.31;6074878;28;20026;-71
2023/01/31 13:32:38;;;;;;;23.20;9.07;;;;;;;4.42;100.00;100871.19;6081021;28;20021;-70
2023/01/31 13:35:38;;;;;;;22.38;8.80;;;;;;;4.39;100.00;100863.50;6088772;28;20041;-69
2023/01/31 13:38:38;;;;;;;26.02;9.43;;;;;;;4.42;100.00;100863.31;6083425;28;20108;-71
2023/01/31 13:41:33;;;;;;;25.58;9.60;;;;;;;4.43;100.00;100858.91;6082758;28;20033;-72
2023/01/31 13:44:29;;;;;;;17.75;8.73;;;;;;;4.41;100.00;100871.25;6098614;28;20120;-70
2023/01/31 13:47:28;;;;;;;22.40;10.45;;;;;;;4.34;100.00;100854.25;6080301;28;20040;-70
2023/01/31 13:50:33;;;;;;;17.77;8.13;;;;;;;4.30;100.00;100842.25;6074590;28;20040;-70
2023/01/31 13:53:34;;;;;;;24.75;9.32;;;;;;;4.37;100.00;100857.53;6076625;28;20041;-71
2023/01/31 13:56:33;;;;;;;24.90;9.88;;;;;;;4.39;100.00;100850.38;6073776;28;20029;-72